createdAt,value
2023-02-21T00:02:35.207Z,8.30
2023-02-21T00:05:20.149Z,4.78
2023-02-21T00:08:05.290Z,5.82
2023-02-21T00:10:50.207Z,5.40
2023-02-21T00:13:35.054Z,5.63
2023-02-21T00:16:20.018Z,5.18
2023-02-21T00:19:04.885Z,4.15
2023-02-21T00:21:49.952Z,4.50
2023-02-21T00:24:37.331Z,4.00
2023-02-21T00:27:23.130Z,5.47
2023-02-21T00:30:09.740Z,3.53
2023-02-21T00:32:55.029Z,3.63
2023-02-21T00:35:40.128Z,4.95
2023-02-21T00:38:26.543Z,5.88
2023-02-21T00:41:12.743Z,4.90
2023-02-21T00:43:58.405Z,3.83
2023-02-21T00:46:44.180Z,4.22
2023-02-21T00:49:29.052Z,7.47
2023-02-21T00:52:14.650Z,3.58
2023-02-21T00:54:59.782Z,4.65
2023-02-21T00:57:44.832Z,5.20
2023-02-21T01:00:37.076Z,3.65
2023-02-21T01:03:22.970Z,4.55
2023-02-21T01:06:08.310Z,6.57
2023-02-21T01:08:53.694Z,3.88
2023-02-21T01:11:39.911Z,7.68
2023-02-21T01:14:28.231Z,4.30
2023-02-21T01:17:13.998Z,4.95
2023-02-21T01:20:00.576Z,3.60
2023-02-21T01:22:46.890Z,5.93
2023-02-21T01:25:33.289Z,5.55
2023-02-21T01:28:18.899Z,3.80
2023-02-21T01:31:04.177Z,3.53
2023-02-21T01:34:02.547Z,5.28
2023-02-21T01:36:47.746Z,6.25
2023-02-21T01:39:32.963Z,5.18
2023-02-21T01:42:18.789Z,3.13
2023-02-21T01:45:06.707Z,4.38
2023-02-21T01:47:52.611Z,4.22
2023-02-21T01:50:40.566Z,6.40
2023-02-21T01:53:33.493Z,5.70
2023-02-21T01:56:19.983Z,4.90
2023-02-21T01:59:09.057Z,5.60
2023-02-21T02:02:16.619Z,4.82
2023-02-21T02:05:03.557Z,7.40
2023-02-21T02:07:50.977Z,4.10
2023-02-21T02:10:36.553Z,4.22
2023-02-21T02:13:16.334Z,4.32
2023-02-21T02:15:54.314Z,4.78
2023-02-21T02:18:45.667Z,3.53
2023-02-21T02:21:40.322Z,4.47
2023-02-21T02:24:45.450Z,5.50
2023-02-21T02:27:33.717Z,5.78
2023-02-21T02:30:24.684Z,4.35
2023-02-21T02:33:09.611Z,3.90
2023-02-21T02:35:47.015Z,5.75
2023-02-21T02:38:37.170Z,5.78
2023-02-21T02:41:22.511Z,6.85
2023-02-21T02:43:58.894Z,3.80
2023-02-21T02:46:35.275Z,5.32
2023-02-21T02:49:09.736Z,5.47
2023-02-21T02:51:36.417Z,5.75
2023-02-21T02:54:05.494Z,5.38
2023-02-21T02:56:33.700Z,5.32
2023-02-21T02:59:06.458Z,5.22
2023-02-21T03:01:45.069Z,5.97
2023-02-21T03:04:30.670Z,4.45
2023-02-21T03:07:18.463Z,5.35
2023-02-21T03:10:08.173Z,3.83
2023-02-21T03:12:47.913Z,4.80
2023-02-21T03:15:40.828Z,4.22
2023-02-21T03:18:16.187Z,4.93
2023-02-21T03:20:44.227Z,7.18
2023-02-21T03:23:14.726Z,7.28
2023-02-21T03:25:42.390Z,7.55
2023-02-21T03:28:09.634Z,4.53
2023-02-21T03:30:41.818Z,5.55
2023-02-21T03:33:08.915Z,5.05
2023-02-21T03:35:35.466Z,6.18
2023-02-21T03:38:02.097Z,6.53
2023-02-21T03:40:31.787Z,4.93
2023-02-21T03:43:01.780Z,5.30
2023-02-21T03:45:32.271Z,5.93
2023-02-21T03:48:05.115Z,4.65
2023-02-21T03:50:33.633Z,4.78
2023-02-21T03:53:00.499Z,6.60
2023-02-21T03:55:27.813Z,6.90
2023-02-21T03:57:55.670Z,5.88
2023-02-21T04:00:23.294Z,7.47
2023-02-21T04:02:52.626Z,7.55
2023-02-21T04:05:33.040Z,6.75
2023-02-21T04:08:00.127Z,6.53
2023-02-21T04:10:27.000Z,6.80
2023-02-21T04:12:54.882Z,5.63
2023-02-21T04:15:21.667Z,7.22
2023-02-21T04:17:48.170Z,6.82
2023-02-21T04:20:15.217Z,7.45
2023-02-21T04:23:02.806Z,7.60
2023-02-21T04:25:30.296Z,3.97
2023-02-21T04:28:02.339Z,6.50
2023-02-21T04:30:29.028Z,6.03
2023-02-21T04:32:55.628Z,6.55
2023-02-21T04:35:22.097Z,8.10
2023-02-21T04:37:48.610Z,5.90
2023-02-21T04:40:15.337Z,6.70
2023-02-21T04:42:41.855Z,9.02
2023-02-21T04:45:08.560Z,6.60
2023-02-21T04:47:36.214Z,7.40
2023-02-21T04:50:03.046Z,5.80
2023-02-21T04:52:29.489Z,5.43
2023-02-21T04:54:56.006Z,7.22
2023-02-21T04:57:22.726Z,4.65
2023-02-21T04:59:49.152Z,5.47
2023-02-21T05:02:15.604Z,3.33
2023-02-21T05:04:43.116Z,4.25
2023-02-21T05:07:09.769Z,7.38
2023-02-21T05:09:36.232Z,5.40
2023-02-21T05:12:02.703Z,8.80
2023-02-21T05:14:29.164Z,5.75
2023-02-21T05:16:55.644Z,7.35
2023-02-21T05:19:30.052Z,4.05
2023-02-21T05:21:58.727Z,6.20
2023-02-21T05:24:26.846Z,6.07
2023-02-21T05:26:54.125Z,7.68
2023-02-21T05:29:21.057Z,6.03
2023-02-21T05:31:48.199Z,5.90
2023-02-21T05:34:16.109Z,5.80
2023-02-21T05:36:42.650Z,6.03
2023-02-21T05:39:09.595Z,7.35
2023-02-21T05:41:36.124Z,5.90
2023-02-21T05:44:03.802Z,6.95
2023-02-21T05:46:33.082Z,10.02
2023-02-21T05:49:02.174Z,5.78
2023-02-21T05:51:34.226Z,5.75
2023-02-21T05:54:00.723Z,5.70
2023-02-21T05:56:27.265Z,4.38
2023-02-21T05:58:53.753Z,5.80
2023-02-21T06:01:20.363Z,6.15
2023-02-21T06:03:46.938Z,5.28
2023-02-21T06:06:16.121Z,4.15
2023-02-21T06:08:44.326Z,5.43
2023-02-21T06:11:11.204Z,6.03
2023-02-21T06:13:37.720Z,6.85
2023-02-21T06:16:04.468Z,7.63
2023-02-21T06:18:30.969Z,6.80
2023-02-21T06:20:57.412Z,6.60
2023-02-21T06:23:23.838Z,8.25
2023-02-21T06:25:50.276Z,6.57
2023-02-21T06:28:17.762Z,5.45
2023-02-21T06:30:44.446Z,6.15
2023-02-21T06:33:10.937Z,5.35
2023-02-21T06:35:37.353Z,4.88
2023-02-21T06:38:03.867Z,4.57
2023-02-21T06:40:30.317Z,4.53
2023-02-21T06:42:56.730Z,4.03
2023-02-21T06:45:23.139Z,5.95
2023-02-21T06:47:49.827Z,5.82
2023-02-21T06:50:16.951Z,6.40
2023-02-21T06:52:43.430Z,4.50
2023-02-21T06:55:09.979Z,5.93
2023-02-21T06:57:36.426Z,4.43
2023-02-21T07:00:05.115Z,6.28
2023-02-21T07:02:31.733Z,4.15
2023-02-21T07:04:58.192Z,8.38
2023-02-21T07:07:24.691Z,7.45
2023-02-21T07:09:51.114Z,8.48
2023-02-21T07:12:17.549Z,5.85
2023-02-21T07:14:43.966Z,7.30
2023-02-21T07:17:10.387Z,6.13
2023-02-21T07:19:36.846Z,4.00
2023-02-21T07:22:03.663Z,7.13
2023-02-21T07:24:30.141Z,5.53
2023-02-21T07:26:56.793Z,9.13
2023-02-21T07:29:23.879Z,5.18
2023-02-21T07:31:50.385Z,6.25
2023-02-21T07:34:17.205Z,7.88
2023-02-21T07:36:44.324Z,7.57
2023-02-21T07:39:11.320Z,7.72
2023-02-21T07:41:37.763Z,9.77
2023-02-21T07:44:04.396Z,4.90
2023-02-21T07:46:31.080Z,7.82
2023-02-21T07:48:57.654Z,6.95
2023-02-21T07:51:28.473Z,8.45
2023-02-21T07:53:54.928Z,4.90
2023-02-21T07:56:21.778Z,8.65
2023-02-21T07:58:48.419Z,6.93
2023-02-21T08:01:15.072Z,4.30
2023-02-21T08:03:41.761Z,6.13
2023-02-21T08:06:10.007Z,5.95
2023-02-21T08:08:36.515Z,5.70
2023-02-21T08:11:03.033Z,4.22
2023-02-21T08:13:29.519Z,4.10
2023-02-21T08:15:56.029Z,5.72
2023-02-21T08:18:26.528Z,4.85
2023-02-21T08:20:54.295Z,5.30
2023-02-21T08:23:21.876Z,8.55
2023-02-21T08:25:48.542Z,4.25
2023-02-21T08:28:16.061Z,6.30
2023-02-21T08:30:42.641Z,4.70
2023-02-21T08:33:09.439Z,5.03
2023-02-21T08:35:36.745Z,4.38
2023-02-21T08:38:03.998Z,3.95
2023-02-21T08:40:31.518Z,5.38
2023-02-21T08:42:59.949Z,5.72
2023-02-21T08:45:28.490Z,5.50
2023-02-21T08:47:55.263Z,5.68
2023-02-21T08:50:23.536Z,5.00
2023-02-21T08:52:50.711Z,3.92
2023-02-21T08:55:17.984Z,3.70
2023-02-21T08:57:44.455Z,3.60
2023-02-21T09:00:13.374Z,4.22
2023-02-21T09:02:40.240Z,3.80
2023-02-21T09:05:18.916Z,4.72
2023-02-21T09:07:49.240Z,4.18
2023-02-21T09:10:17.623Z,3.05
2023-02-21T09:12:44.299Z,3.28
2023-02-21T09:15:11.065Z,5.43
2023-02-21T09:17:37.591Z,3.95
2023-02-21T09:20:06.799Z,4.38
2023-02-21T09:22:34.251Z,4.28
2023-02-21T09:25:01.891Z,3.08
2023-02-21T09:27:37.516Z,4.55
2023-02-21T09:30:16.634Z,3.50
2023-02-21T09:32:43.133Z,4.18
2023-02-21T09:35:13.808Z,2.63
2023-02-21T09:37:42.386Z,4.95
2023-02-21T09:40:24.777Z,4.82
2023-02-21T09:42:54.309Z,3.78
2023-02-21T09:45:22.371Z,1.50
2023-02-21T09:47:58.844Z,3.58
2023-02-21T09:50:30.965Z,3.65
2023-02-21T09:52:58.694Z,1.98
2023-02-21T09:55:38.712Z,4.45
2023-02-21T09:58:13.797Z,5.28
2023-02-21T10:00:40.484Z,2.72
2023-02-21T10:03:43.768Z,2.95
2023-02-21T10:06:31.910Z,2.75
2023-02-21T10:09:36.932Z,4.45
2023-02-21T10:12:20.051Z,2.30
2023-02-21T10:14:55.256Z,2.60
2023-02-21T10:17:29.476Z,2.30
2023-02-21T10:20:04.415Z,3.95
2023-02-21T10:22:37.728Z,1.85
2023-02-21T10:25:31.974Z,2.88
2023-02-21T10:28:01.519Z,2.75
2023-02-21T10:30:37.139Z,4.05
2023-02-21T10:33:07.803Z,2.08
2023-02-21T10:35:36.090Z,1.90
2023-02-21T10:38:07.785Z,3.83
2023-02-21T10:40:44.375Z,2.92
2023-02-21T10:43:28.214Z,3.45
2023-02-21T10:46:13.334Z,1.75
2023-02-21T10:48:42.708Z,1.33
2023-02-21T10:51:14.357Z,1.77
2023-02-21T10:53:46.809Z,3.70
2023-02-21T10:56:18.288Z,2.70
2023-02-21T10:58:47.529Z,3.30
2023-02-21T11:01:32.896Z,2.38
2023-02-21T11:04:03.693Z,2.75
2023-02-21T11:06:40.080Z,1.83
2023-02-21T11:09:27.926Z,4.03
2023-02-21T11:12:15.844Z,4.50
2023-02-21T11:14:44.789Z,3.08
2023-02-21T11:17:23.331Z,3.22
2023-02-21T11:19:57.808Z,2.42
2023-02-21T11:22:35.665Z,2.38
2023-02-21T11:25:20.443Z,2.42
2023-02-21T11:28:00.943Z,0.88
2023-02-21T11:30:28.009Z,2.58
2023-02-21T11:32:57.751Z,2.55
2023-02-21T11:35:34.411Z,3.20
2023-02-21T11:38:02.500Z,1.95
2023-02-21T11:40:44.307Z,2.03
2023-02-21T11:45:44.522Z,4.82
2023-02-21T11:48:18.311Z,3.40
2023-02-21T11:50:51.742Z,0.63
2023-02-21T11:53:39.442Z,3.50
2023-02-21T11:56:24.095Z,2.83
2023-02-21T11:58:50.476Z,2.08
2023-02-21T12:01:24.536Z,6.80
2023-02-21T12:04:16.088Z,2.05
2023-02-21T12:06:55.277Z,3.10
2023-02-21T12:09:37.085Z,2.45
2023-02-21T12:12:13.604Z,2.08
2023-02-21T12:14:57.345Z,6.95
2023-02-21T12:18:00.984Z,2.13
2023-02-21T12:20:45.985Z,4.13
2023-02-21T12:23:27.646Z,8.75
2023-02-21T12:28:48.139Z,2.10
2023-02-21T12:31:29.291Z,3.75
2023-02-21T12:34:09.010Z,4.85
2023-02-21T12:37:02.626Z,6.32
2023-02-21T12:40:05.016Z,3.95
2023-02-21T12:42:35.102Z,4.32
2023-02-21T12:45:24.734Z,3.50
2023-02-21T12:47:55.698Z,4.13
2023-02-21T12:50:26.997Z,5.60
2023-02-21T12:53:03.355Z,4.78
2023-02-21T12:55:35.190Z,5.60
2023-02-21T12:58:52.726Z,4.70
2023-02-21T13:01:25.261Z,5.82
2023-02-21T13:04:15.377Z,3.97
2023-02-21T13:06:51.461Z,4.95
2023-02-21T13:09:43.054Z,4.55
2023-02-21T13:12:14.931Z,5.95
2023-02-21T13:14:50.159Z,3.55
2023-02-21T13:17:18.216Z,6.85
2023-02-21T13:19:55.654Z,4.10
2023-02-21T13:22:27.606Z,6.97
2023-02-21T13:25:12.926Z,6.20
2023-02-21T13:28:15.135Z,8.00
2023-02-21T13:30:49.358Z,4.85
2023-02-21T13:33:38.400Z,5.10
2023-02-21T13:36:31.465Z,4.65
2023-02-21T13:39:20.881Z,5.40
2023-02-21T13:41:57.697Z,7.82
2023-02-21T13:44:34.204Z,4.22
2023-02-21T13:47:03.806Z,8.50
2023-02-21T13:49:50.809Z,5.15
2023-02-21T13:52:20.127Z,6.57
2023-02-21T13:55:11.409Z,4.65
2023-02-21T13:57:40.244Z,6.20
2023-02-21T14:00:24.801Z,6.88
2023-02-21T14:03:09.569Z,5.50
2023-02-21T14:05:45.838Z,5.85
2023-02-21T14:08:25.773Z,5.47
2023-02-21T14:10:54.978Z,4.10
2023-02-21T14:13:33.814Z,5.95
2023-02-21T14:16:16.164Z,7.43
2023-02-21T14:18:51.408Z,5.80
2023-02-21T14:21:29.832Z,10.05
2023-02-21T14:24:11.197Z,3.45
2023-02-21T14:26:37.620Z,7.55
2023-02-21T14:29:07.123Z,5.43
2023-02-21T14:32:02.550Z,5.32
2023-02-21T14:34:47.350Z,6.05
2023-02-21T14:37:41.907Z,7.13
2023-02-21T14:40:14.233Z,8.63
2023-02-21T14:43:10.975Z,6.40
2023-02-21T14:45:46.230Z,8.27
2023-02-21T14:48:50.466Z,7.38
2023-02-21T14:51:41.854Z,8.18
2023-02-21T14:54:37.139Z,4.95
2023-02-21T14:57:12.357Z,6.22
2023-02-21T14:59:55.008Z,6.45
2023-02-21T15:02:36.005Z,6.75
2023-02-21T15:05:20.708Z,6.20
2023-02-21T15:08:12.241Z,9.32
2023-02-21T15:10:47.377Z,4.93
2023-02-21T15:13:35.065Z,5.60
2023-02-21T15:16:08.458Z,6.93
2023-02-21T15:18:38.288Z,6.70
2023-02-21T15:21:25.307Z,5.10
2023-02-21T15:24:15.014Z,5.45
2023-02-21T15:26:41.665Z,6.97
2023-02-21T15:29:16.944Z,7.65
2023-02-21T15:31:55.188Z,5.65
2023-02-21T15:34:38.848Z,6.65
2023-02-21T15:37:23.532Z,5.65
2023-02-21T15:40:11.974Z,7.60
2023-02-21T15:42:41.388Z,5.53
2023-02-21T15:45:16.526Z,8.15
2023-02-21T15:47:43.325Z,5.47
2023-02-21T15:50:29.423Z,6.15
2023-02-21T15:52:55.860Z,4.43
2023-02-21T15:55:25.715Z,6.80
2023-02-21T15:58:02.730Z,9.57
2023-02-21T16:00:32.022Z,9.05
2023-02-21T16:03:28.754Z,8.80
2023-02-21T16:06:25.116Z,7.70
2023-02-21T16:09:01.877Z,6.88
2023-02-21T16:11:39.686Z,9.00
2023-02-21T16:14:13.487Z,7.10
2023-02-21T16:16:40.071Z,7.07
2023-02-21T16:19:06.700Z,8.70
2023-02-21T16:21:33.082Z,10.52
2023-02-21T16:24:15.162Z,7.60
2023-02-21T16:26:41.712Z,7.50
2023-02-21T16:29:08.159Z,8.57
2023-02-21T16:31:36.787Z,6.05
2023-02-21T16:34:03.547Z,8.38
2023-02-21T16:36:31.865Z,9.20
2023-02-21T16:38:58.998Z,9.52
2023-02-21T16:41:26.215Z,11.57
2023-02-21T16:43:52.744Z,7.72
2023-02-21T16:46:30.135Z,9.15
2023-02-21T16:48:58.720Z,10.90
2023-02-21T16:51:25.232Z,8.35
2023-02-21T16:53:51.699Z,8.02
2023-02-21T16:56:18.402Z,7.70
2023-02-21T16:58:50.289Z,7.85
2023-02-21T17:01:29.283Z,8.52
2023-02-21T17:03:56.435Z,9.68
2023-02-21T17:06:25.855Z,7.32
2023-02-21T17:08:52.605Z,13.15
2023-02-21T17:11:19.105Z,7.32
2023-02-21T17:13:45.898Z,9.13
2023-02-21T17:16:12.374Z,9.20
2023-02-21T17:18:38.839Z,8.35
2023-02-21T17:21:05.904Z,8.55
2023-02-21T17:23:32.325Z,11.38
2023-02-21T17:25:58.783Z,6.82
2023-02-21T17:28:25.489Z,7.88
2023-02-21T17:30:52.289Z,8.07
2023-02-21T17:33:18.771Z,7.50
2023-02-21T17:35:45.271Z,9.05
2023-02-21T17:38:11.850Z,8.55
2023-02-21T17:40:38.311Z,8.32
2023-02-21T17:43:08.571Z,10.07
2023-02-21T17:45:38.298Z,8.55
2023-02-21T17:48:06.092Z,9.73
2023-02-21T17:50:32.911Z,8.15
2023-02-21T17:52:59.623Z,10.85
2023-02-21T17:55:26.792Z,10.98
2023-02-21T17:57:53.423Z,23.88
2023-02-21T18:00:24.908Z,9.93
2023-02-21T18:02:53.086Z,14.70
2023-02-21T18:05:20.355Z,11.05
2023-02-21T18:07:51.367Z,12.20
2023-02-21T18:10:20.133Z,11.00
2023-02-21T18:12:48.172Z,10.20
2023-02-21T18:15:15.978Z,10.40
2023-02-21T18:17:42.523Z,15.68
2023-02-21T18:20:10.359Z,11.70
2023-02-21T18:22:38.128Z,10.65
2023-02-21T18:25:05.649Z,10.93
2023-02-21T18:27:32.110Z,11.88
2023-02-21T18:29:58.562Z,12.40
2023-02-21T18:32:25.471Z,11.35
2023-02-21T18:34:52.474Z,11.77
2023-02-21T18:37:19.887Z,10.80
2023-02-21T18:39:46.341Z,12.05
2023-02-21T18:42:13.174Z,15.35
2023-02-21T18:44:39.630Z,13.70
2023-02-21T18:47:06.395Z,11.07
2023-02-21T18:49:38.515Z,11.50
2023-02-21T18:52:07.133Z,16.30
2023-02-21T18:54:34.086Z,10.60
2023-02-21T18:57:00.691Z,12.45
2023-02-21T18:59:27.222Z,9.85
2023-02-21T19:01:55.079Z,9.82
2023-02-21T19:04:21.906Z,11.20
2023-02-21T19:06:48.434Z,11.88
2023-02-21T19:33:46.723Z,12.63
2023-02-21T19:36:13.308Z,12.55
2023-02-21T19:38:39.872Z,11.15
2023-02-21T19:41:07.292Z,10.13
2023-02-21T19:43:34.872Z,12.98
2023-02-21T19:46:01.740Z,12.18
2023-02-21T19:48:28.178Z,10.50
2023-02-21T19:50:55.012Z,11.98
2023-02-21T19:53:21.656Z,10.93
2023-02-21T19:55:48.212Z,11.45
2023-02-21T19:58:14.662Z,12.20
2023-02-21T20:00:43.873Z,13.32
2023-02-21T20:03:11.390Z,9.00
2023-02-21T20:05:38.106Z,9.45
2023-02-21T20:08:04.803Z,12.48
2023-02-21T20:10:31.256Z,13.07
2023-02-21T20:12:58.200Z,13.52
2023-02-21T20:15:24.886Z,8.98
2023-02-21T20:17:53.367Z,10.68
2023-02-21T20:20:20.174Z,9.88
2023-02-21T20:22:46.652Z,13.43
2023-02-21T20:25:13.122Z,12.50
2023-02-21T20:27:41.637Z,12.25
2023-02-21T20:30:09.375Z,12.73
2023-02-21T20:32:35.857Z,13.88
2023-02-21T20:35:02.874Z,16.25
2023-02-21T20:37:31.296Z,12.70
2023-02-21T20:39:58.951Z,13.73
2023-02-21T20:42:25.474Z,14.32
2023-02-21T20:44:52.259Z,13.55
2023-02-21T20:47:19.542Z,13.52
2023-02-21T20:49:47.335Z,14.68
2023-02-21T20:52:16.072Z,11.27
2023-02-21T20:54:43.035Z,13.38
2023-02-21T20:57:09.724Z,11.85
2023-02-21T20:59:39.374Z,12.98
2023-02-21T21:02:08.043Z,10.95
2023-02-21T21:04:36.969Z,11.38
2023-02-21T21:07:06.861Z,13.02
2023-02-21T21:09:37.293Z,11.45
2023-02-21T21:12:09.758Z,11.20
2023-02-21T21:14:41.407Z,8.68
2023-02-21T21:17:09.207Z,8.98
2023-02-21T21:19:36.840Z,11.13
2023-02-21T21:22:09.831Z,12.02
2023-02-21T21:24:37.849Z,9.02
2023-02-21T21:27:08.648Z,10.30
2023-02-21T21:29:43.438Z,12.88
2023-02-21T21:32:15.217Z,11.75
2023-02-21T21:34:46.454Z,8.07
2023-02-21T21:37:14.416Z,8.25
2023-02-21T21:39:54.603Z,12.93
2023-02-21T21:42:24.991Z,11.10
2023-02-21T21:44:53.638Z,10.93
2023-02-21T21:47:37.043Z,14.00
2023-02-21T21:50:05.261Z,9.82
2023-02-21T21:52:32.194Z,12.55
2023-02-21T21:54:58.752Z,10.80
2023-02-21T21:57:27.780Z,10.90
2023-02-21T21:59:55.207Z,13.40
2023-02-21T22:02:21.823Z,14.00
2023-02-21T22:04:48.356Z,9.45
2023-02-21T22:07:15.257Z,12.27
2023-02-21T22:09:41.723Z,9.55
2023-02-21T22:12:08.435Z,12.18
2023-02-21T22:14:35.419Z,8.23
2023-02-21T22:17:01.947Z,12.35
2023-02-21T22:19:28.596Z,13.25
2023-02-21T22:21:55.154Z,11.18
2023-02-21T22:24:23.581Z,8.93
2023-02-21T22:26:53.375Z,12.95
2023-02-21T22:29:19.876Z,11.80
2023-02-21T22:31:48.148Z,18.48
2023-02-21T22:34:22.981Z,14.75
2023-02-21T22:36:51.893Z,11.50
2023-02-21T22:39:19.892Z,12.32
2023-02-21T22:41:48.915Z,11.73
2023-02-21T22:44:16.523Z,12.32
2023-02-21T22:46:45.925Z,9.57
2023-02-21T22:49:12.951Z,8.68
2023-02-21T22:51:39.406Z,11.73
2023-02-21T22:54:06.075Z,9.25
2023-02-21T22:56:38.202Z,15.05
2023-02-21T22:59:07.550Z,10.68
2023-02-21T23:01:34.726Z,11.15
2023-02-21T23:04:20.421Z,10.88
2023-02-21T23:06:46.865Z,11.52
2023-02-21T23:09:13.620Z,10.27
2023-02-21T23:11:51.625Z,11.70
2023-02-21T23:14:19.465Z,10.27
2023-02-21T23:16:46.155Z,8.55
2023-02-21T23:19:12.626Z,12.93
2023-02-21T23:21:50.781Z,13.20
2023-02-21T23:24:19.824Z,7.68
2023-02-21T23:26:47.424Z,7.70
2023-02-21T23:29:15.469Z,9.27
2023-02-21T23:31:42.238Z,10.93
2023-02-21T23:34:10.090Z,9.02
2023-02-21T23:36:39.299Z,11.13
2023-02-21T23:39:09.859Z,8.73
2023-02-21T23:41:41.563Z,10.15
2023-02-21T23:46:43.013Z,11.43
2023-02-21T23:49:11.454Z,11.98
2023-02-21T23:51:38.446Z,10.25
2023-02-21T23:54:07.000Z,12.05
2023-02-21T23:56:33.495Z,9.55
2023-02-21T23:58:59.955Z,11.60
